createdAt,value
2023-02-25T00:03:56.467Z,3.90
2023-02-25T00:08:52.035Z,4.85
2023-02-25T00:11:20.376Z,4.20
2023-02-25T00:13:47.420Z,4.65
2023-02-25T00:16:15.773Z,4.95
2023-02-25T00:18:46.966Z,4.13
2023-02-25T00:21:16.262Z,4.03
2023-02-25T00:23:44.770Z,4.75
2023-02-25T00:26:12.202Z,4.78
2023-02-25T00:28:40.863Z,4.40
2023-02-25T00:31:10.490Z,4.22
2023-02-25T00:33:41.903Z,4.93
2023-02-25T00:36:11.853Z,4.55
2023-02-25T00:38:39.194Z,4.75
2023-02-25T00:41:13.368Z,3.88
2023-02-25T00:43:42.445Z,5.20
2023-02-25T00:46:13.220Z,4.25
2023-02-25T00:48:40.484Z,3.92
2023-02-25T00:51:13.658Z,4.32
2023-02-25T00:53:41.626Z,4.45
2023-02-25T00:56:11.461Z,3.92
2023-02-25T00:58:38.766Z,3.53
2023-02-25T01:01:15.739Z,4.00
2023-02-25T01:03:43.023Z,3.13
2023-02-25T01:06:10.522Z,2.78
2023-02-25T01:08:37.741Z,2.65
2023-02-25T01:11:27.202Z,3.45
2023-02-25T01:13:54.830Z,3.33
2023-02-25T01:16:25.044Z,2.78
2023-02-25T01:18:56.039Z,4.25
2023-02-25T01:21:28.144Z,3.47
2023-02-25T01:26:31.472Z,3.35
2023-02-25T01:28:58.898Z,4.25
2023-02-25T01:31:31.499Z,4.68
2023-02-25T01:34:02.277Z,4.15
2023-02-25T01:36:31.432Z,4.60
2023-02-25T01:38:59.404Z,4.25
2023-02-25T01:41:27.899Z,5.53
2023-02-25T01:44:29.806Z,5.43
2023-02-25T01:46:56.755Z,4.18
2023-02-25T01:49:30.005Z,5.15
2023-02-25T01:52:21.538Z,4.70
2023-02-25T01:54:53.574Z,5.22
2023-02-25T01:59:50.639Z,4.35
2023-02-25T02:02:21.330Z,4.20
2023-02-25T02:04:51.295Z,4.72
2023-02-25T02:07:20.831Z,4.13
2023-02-25T02:09:57.083Z,4.47
2023-02-25T02:12:32.310Z,4.05
2023-02-25T02:15:04.297Z,4.47
2023-02-25T02:17:51.819Z,4.97
2023-02-25T02:20:27.270Z,3.92
2023-02-25T02:23:28.326Z,3.40
2023-02-25T02:26:08.019Z,4.65
2023-02-25T02:29:07.647Z,4.03
2023-02-25T02:32:28.390Z,3.78
2023-02-25T02:35:20.903Z,4.22
2023-02-25T02:38:13.484Z,3.80
2023-02-25T02:41:17.715Z,2.67
2023-02-25T02:43:53.669Z,2.55
2023-02-25T02:46:26.103Z,3.08
2023-02-25T02:49:03.324Z,3.03
2023-02-25T02:51:59.695Z,2.50
2023-02-25T02:54:35.229Z,2.33
2023-02-25T02:57:04.069Z,2.22
2023-02-25T02:59:43.190Z,2.72
2023-02-25T03:02:18.145Z,2.75
2023-02-25T03:04:49.744Z,1.80
2023-02-25T03:07:19.341Z,2.40
2023-02-25T03:09:53.615Z,2.42
2023-02-25T03:12:20.737Z,2.60
2023-02-25T03:14:47.869Z,2.17
2023-02-25T03:17:16.942Z,2.72
2023-02-25T03:19:53.608Z,2.13
2023-02-25T03:22:27.890Z,2.30
2023-02-25T03:25:24.955Z,2.22
2023-02-25T03:27:57.848Z,2.78
2023-02-25T03:30:36.520Z,1.92
2023-02-25T03:33:24.350Z,1.95
2023-02-25T03:35:54.781Z,1.90
2023-02-25T03:38:25.979Z,1.70
2023-02-25T03:40:57.422Z,2.00
2023-02-25T03:43:30.954Z,1.55
2023-02-25T03:45:59.513Z,1.65
2023-02-25T03:48:31.084Z,2.50
2023-02-25T03:51:03.942Z,2.30
2023-02-25T03:53:35.257Z,2.80
2023-02-25T03:56:12.414Z,2.03
2023-02-25T03:58:43.299Z,2.17
2023-02-25T04:01:17.203Z,1.58
2023-02-25T04:03:44.958Z,1.98
2023-02-25T04:06:13.354Z,1.77
2023-02-25T04:08:49.718Z,3.15
2023-02-25T04:11:17.835Z,2.03
2023-02-25T04:13:46.745Z,2.72
2023-02-25T04:16:14.459Z,2.47
2023-02-25T04:18:42.462Z,1.75
2023-02-25T04:21:10.404Z,1.90
2023-02-25T04:23:37.716Z,2.00
2023-02-25T04:26:04.818Z,2.38
2023-02-25T04:28:31.794Z,3.22
2023-02-25T04:30:58.886Z,2.60
2023-02-25T04:33:25.895Z,2.38
2023-02-25T04:35:52.808Z,2.60
2023-02-25T04:38:19.797Z,3.00
2023-02-25T04:40:47.913Z,3.45
2023-02-25T04:43:14.828Z,2.67
2023-02-25T04:45:41.821Z,3.22
2023-02-25T04:48:09.117Z,2.75
2023-02-25T04:50:36.061Z,3.67
2023-02-25T04:53:03.713Z,3.17
2023-02-25T04:55:30.804Z,3.90
2023-02-25T04:57:58.078Z,3.95
2023-02-25T05:00:27.073Z,3.97
2023-02-25T05:02:55.031Z,3.78
2023-02-25T05:05:21.916Z,3.97
2023-02-25T05:07:49.218Z,4.10
2023-02-25T05:10:16.502Z,3.70
2023-02-25T05:12:43.488Z,3.78
2023-02-25T05:15:11.410Z,4.35
2023-02-25T05:17:38.473Z,3.83
2023-02-25T05:20:15.366Z,4.40
2023-02-25T05:22:42.686Z,4.60
2023-02-25T05:25:10.609Z,4.13
2023-02-25T05:27:37.761Z,3.88
2023-02-25T05:30:05.182Z,4.78
2023-02-25T05:32:32.349Z,4.43
2023-02-25T05:35:00.633Z,4.68
2023-02-25T05:37:27.606Z,3.97
2023-02-25T05:39:55.880Z,3.92
2023-02-25T05:42:22.858Z,3.88
2023-02-25T05:44:49.818Z,3.78
2023-02-25T05:47:16.740Z,3.53
2023-02-25T05:49:43.724Z,3.63
2023-02-25T05:52:13.226Z,3.70
2023-02-25T05:54:40.373Z,4.18
2023-02-25T05:57:07.410Z,4.05
2023-02-25T05:59:36.572Z,3.42
2023-02-25T06:02:04.180Z,3.70
2023-02-25T06:04:31.246Z,3.22
2023-02-25T06:06:58.125Z,2.67
2023-02-25T06:09:24.988Z,3.58
2023-02-25T06:11:52.452Z,4.00
2023-02-25T06:14:19.409Z,2.97
2023-02-25T06:16:46.459Z,2.90
2023-02-25T06:19:13.541Z,2.97
2023-02-25T06:21:40.542Z,3.58
2023-02-25T06:24:08.897Z,2.58
2023-02-25T06:26:42.068Z,2.45
2023-02-25T06:29:10.004Z,2.47
2023-02-25T06:31:37.658Z,2.30
2023-02-25T06:34:05.468Z,2.63
2023-02-25T06:36:33.113Z,2.72
2023-02-25T06:39:00.936Z,2.00
2023-02-25T06:41:27.950Z,2.58
2023-02-25T06:43:55.191Z,1.95
2023-02-25T06:46:25.534Z,1.55
2023-02-25T06:48:53.100Z,2.40
2023-02-25T06:51:20.160Z,2.15
2023-02-25T06:53:47.794Z,2.22
2023-02-25T06:56:16.238Z,1.90
2023-02-25T06:58:43.238Z,2.13
2023-02-25T07:01:13.727Z,2.15
2023-02-25T07:03:41.282Z,1.73
2023-02-25T07:06:08.994Z,2.05
2023-02-25T07:08:36.390Z,1.92
2023-02-25T07:11:14.912Z,2.47
2023-02-25T07:13:48.952Z,2.80
2023-02-25T07:16:16.915Z,2.53
2023-02-25T07:18:44.312Z,2.97
2023-02-25T07:21:16.199Z,2.45
2023-02-25T07:23:43.492Z,2.55
2023-02-25T07:26:13.126Z,1.88
2023-02-25T07:28:40.631Z,1.90
2023-02-25T07:31:17.335Z,2.05
2023-02-25T07:33:44.763Z,1.90
2023-02-25T07:36:13.032Z,1.65
2023-02-25T07:38:40.681Z,1.35
2023-02-25T07:41:10.490Z,2.05
2023-02-25T07:43:38.121Z,2.25
2023-02-25T07:46:05.834Z,3.00
2023-02-25T07:48:33.226Z,1.70
2023-02-25T07:51:15.876Z,2.53
2023-02-25T07:53:43.010Z,1.88
2023-02-25T07:56:10.176Z,1.67
2023-02-25T07:58:38.592Z,1.92
2023-02-25T08:01:20.110Z,2.05
2023-02-25T08:03:52.826Z,1.45
2023-02-25T08:06:21.025Z,1.98
2023-02-25T08:08:50.861Z,2.53
2023-02-25T08:11:19.407Z,2.22
2023-02-25T08:13:46.974Z,1.58
2023-02-25T08:16:18.911Z,1.75
2023-02-25T08:18:47.154Z,2.25
2023-02-25T08:21:18.134Z,2.38
2023-02-25T08:23:51.455Z,2.50
2023-02-25T08:26:19.455Z,2.00
2023-02-25T08:28:47.105Z,2.05
2023-02-25T08:31:14.240Z,2.33
2023-02-25T08:33:43.632Z,2.60
2023-02-25T08:36:14.092Z,2.80
2023-02-25T08:38:41.180Z,2.30
2023-02-25T08:41:08.914Z,2.03
2023-02-25T08:43:37.311Z,2.03
2023-02-25T08:46:06.425Z,1.95
2023-02-25T08:48:34.786Z,1.80
2023-02-25T08:51:09.572Z,1.83
2023-02-25T08:53:38.844Z,2.40
2023-02-25T08:56:07.413Z,2.20
2023-02-25T08:58:34.933Z,2.67
2023-02-25T09:01:07.190Z,1.50
2023-02-25T09:03:34.299Z,3.22
2023-02-25T09:06:01.684Z,2.72
2023-02-25T09:08:28.694Z,3.00
2023-02-25T09:10:55.603Z,2.30
2023-02-25T09:13:22.704Z,1.60
2023-02-25T09:15:57.783Z,2.15
2023-02-25T09:18:25.143Z,1.98
2023-02-25T09:20:52.504Z,1.63
2023-02-25T09:23:20.352Z,2.13
2023-02-25T09:25:47.355Z,3.60
2023-02-25T09:28:14.322Z,2.67
2023-02-25T09:30:41.254Z,2.00
2023-02-25T09:33:08.381Z,2.65
2023-02-25T09:35:35.556Z,2.70
2023-02-25T09:38:02.452Z,2.42
2023-02-25T09:40:30.715Z,2.00
2023-02-25T09:43:22.819Z,2.30
2023-02-25T09:45:54.266Z,2.30
2023-02-25T09:48:28.554Z,2.15
2023-02-25T09:51:03.949Z,2.10
2023-02-25T09:53:40.423Z,2.83
2023-02-25T09:56:08.436Z,2.50
2023-02-25T09:58:54.135Z,2.38
2023-02-25T10:01:42.362Z,2.33
2023-02-25T10:04:17.614Z,2.45
2023-02-25T10:06:49.998Z,3.08
2023-02-25T10:09:32.472Z,2.65
2023-02-25T10:15:02.952Z,2.75
2023-02-25T10:17:44.480Z,2.38
2023-02-25T10:20:48.974Z,2.80
2023-02-25T10:23:53.040Z,2.72
2023-02-25T10:26:25.158Z,2.10
2023-02-25T10:31:24.392Z,1.55
2023-02-25T10:33:54.031Z,3.17
2023-02-25T10:36:43.951Z,2.50
2023-02-25T10:39:11.622Z,2.17
2023-02-25T10:41:38.636Z,2.20
2023-02-25T10:44:05.589Z,2.13
2023-02-25T10:46:55.625Z,2.45
2023-02-25T10:49:26.072Z,2.17
2023-02-25T10:52:15.206Z,1.98
2023-02-25T10:54:53.380Z,1.88
2023-02-25T10:57:28.069Z,1.88
2023-02-25T11:00:21.623Z,1.95
2023-02-25T11:02:51.694Z,2.78
2023-02-25T11:05:31.158Z,2.47
2023-02-25T11:07:58.176Z,3.45
2023-02-25T11:10:25.232Z,1.85
2023-02-25T11:12:58.047Z,2.55
2023-02-25T11:15:44.780Z,2.67
2023-02-25T11:18:22.164Z,3.22
2023-02-25T11:21:10.487Z,1.85
2023-02-25T11:23:46.951Z,2.65
2023-02-25T11:26:34.594Z,2.20
2023-02-25T11:29:16.716Z,2.13
2023-02-25T11:31:44.392Z,2.67
2023-02-25T11:34:24.855Z,2.38
2023-02-25T11:36:53.493Z,2.10
2023-02-25T11:39:22.465Z,2.03
2023-02-25T11:42:01.983Z,2.13
2023-02-25T11:44:45.540Z,2.20
2023-02-25T11:47:22.200Z,1.83
2023-02-25T11:50:10.234Z,2.15
2023-02-25T11:52:46.796Z,2.42
2023-02-25T11:55:49.151Z,2.05
2023-02-25T11:58:58.308Z,1.90
2023-02-25T12:01:28.445Z,2.90
2023-02-25T12:04:28.414Z,2.83
2023-02-25T12:07:04.864Z,1.98
2023-02-25T12:10:03.212Z,2.00
2023-02-25T12:12:55.897Z,1.90
2023-02-25T12:16:08.328Z,2.42
2023-02-25T12:19:09.358Z,2.03
2023-02-25T12:21:54.514Z,1.35
2023-02-25T12:24:30.270Z,2.00
2023-02-25T12:27:32.278Z,1.73
2023-02-25T12:30:07.180Z,1.35
2023-02-25T12:32:59.368Z,1.70
2023-02-25T12:35:29.264Z,1.63
2023-02-25T12:38:21.221Z,1.52
2023-02-25T12:41:31.632Z,2.55
2023-02-25T12:44:33.209Z,2.25
2023-02-25T12:47:33.976Z,1.13
2023-02-25T12:50:00.971Z,1.60
2023-02-25T12:52:57.305Z,1.88
2023-02-25T12:55:40.640Z,1.95
2023-02-25T12:58:22.632Z,1.42
2023-02-25T13:01:14.444Z,1.40
2023-02-25T13:04:07.399Z,1.23
2023-02-25T13:06:40.079Z,1.30
2023-02-25T13:09:44.071Z,1.00
2023-02-25T13:12:41.566Z,1.40
2023-02-25T13:15:24.963Z,1.55
2023-02-25T13:18:14.973Z,1.20
2023-02-25T13:20:51.691Z,1.50
2023-02-25T13:23:34.389Z,1.30
2023-02-25T13:26:26.270Z,1.08
2023-02-25T13:29:13.875Z,1.38
2023-02-25T13:32:35.564Z,1.10
2023-02-25T13:35:22.659Z,1.65
2023-02-25T13:38:18.116Z,1.88
2023-02-25T13:41:11.573Z,1.33
2023-02-25T13:44:01.988Z,1.10
2023-02-25T13:46:57.993Z,1.55
2023-02-25T13:49:54.881Z,1.52
2023-02-25T13:52:53.737Z,1.70
2023-02-25T13:55:42.704Z,1.35
2023-02-25T13:58:43.556Z,1.58
2023-02-25T14:01:45.700Z,4.03
2023-02-25T14:04:30.621Z,1.67
2023-02-25T14:07:16.325Z,2.97
2023-02-25T14:09:54.607Z,2.38
2023-02-25T14:12:44.348Z,2.70
2023-02-25T14:15:43.620Z,1.50
2023-02-25T14:18:32.316Z,1.65
2023-02-25T14:21:33.782Z,1.70
2023-02-25T14:24:23.795Z,1.25
2023-02-25T14:27:15.881Z,1.90
2023-02-25T14:30:05.852Z,1.15
2023-02-25T14:32:47.909Z,0.93
2023-02-25T14:35:58.506Z,1.30
2023-02-25T14:38:52.032Z,0.90
2023-02-25T14:41:22.001Z,1.00
2023-02-25T14:43:53.670Z,1.10
2023-02-25T14:46:33.642Z,1.05
2023-02-25T14:49:17.165Z,1.38
2023-02-25T14:52:02.939Z,0.93
2023-02-25T14:55:07.328Z,1.00
2023-02-25T14:57:56.709Z,1.15
2023-02-25T15:00:50.475Z,1.38
2023-02-25T15:03:23.809Z,1.08
2023-02-25T15:06:10.908Z,1.95
2023-02-25T15:09:07.780Z,1.25
2023-02-25T15:11:37.705Z,1.55
2023-02-25T15:14:16.657Z,1.08
2023-02-25T15:17:17.732Z,1.17
2023-02-25T15:19:45.958Z,1.20
2023-02-25T15:22:27.051Z,0.90
2023-02-25T15:25:15.137Z,1.17
2023-02-25T15:27:47.015Z,1.13
2023-02-25T15:30:17.241Z,1.27
2023-02-25T15:32:59.994Z,1.00
2023-02-25T15:35:36.130Z,1.20
2023-02-25T15:38:20.027Z,1.50
2023-02-25T15:40:56.073Z,1.10
2023-02-25T15:43:41.744Z,1.58
2023-02-25T15:46:08.811Z,1.00
2023-02-25T15:48:38.192Z,2.03
2023-02-25T15:51:10.649Z,1.45
2023-02-25T15:53:41.424Z,1.80
2023-02-25T15:56:08.718Z,1.33
2023-02-25T15:58:35.573Z,1.38
2023-02-25T16:01:31.127Z,3.47
2023-02-25T16:03:59.462Z,2.00
2023-02-25T16:06:32.273Z,1.10
2023-02-25T16:09:08.596Z,1.75
2023-02-25T16:11:44.676Z,1.05
2023-02-25T16:14:22.933Z,1.67
2023-02-25T16:16:57.506Z,1.80
2023-02-25T16:19:40.915Z,2.90
2023-02-25T16:22:15.136Z,1.63
2023-02-25T16:24:50.723Z,1.50
2023-02-25T16:27:51.098Z,1.67
2023-02-25T16:30:34.034Z,1.40
2023-02-25T16:35:48.392Z,1.67
2023-02-25T16:38:26.098Z,1.30
2023-02-25T16:40:53.426Z,1.63
2023-02-25T16:43:30.303Z,1.38
2023-02-25T16:45:58.931Z,1.27
2023-02-25T16:48:32.013Z,1.42
2023-02-25T16:51:10.379Z,1.60
2023-02-25T16:53:43.618Z,1.50
2023-02-25T16:56:30.373Z,1.40
2023-02-25T16:59:03.758Z,1.33
2023-02-25T17:01:32.831Z,2.20
2023-02-25T17:04:22.359Z,2.00
2023-02-25T17:07:18.153Z,2.17
2023-02-25T17:09:52.408Z,1.90
2023-02-25T17:12:24.091Z,1.40
2023-02-25T17:14:52.520Z,1.73
2023-02-25T17:17:41.210Z,2.65
2023-02-25T17:20:14.902Z,2.35
2023-02-25T17:22:44.385Z,1.65
2023-02-25T17:25:16.358Z,1.50
2023-02-25T17:27:46.438Z,2.13
2023-02-25T17:30:42.921Z,2.60
2023-02-25T17:33:25.813Z,2.08
2023-02-25T17:36:01.406Z,2.33
2023-02-25T17:38:29.282Z,2.70
2023-02-25T17:40:57.305Z,2.38
2023-02-25T17:43:34.732Z,1.63
2023-02-25T17:46:13.322Z,2.00
2023-02-25T17:48:43.491Z,1.98
2023-02-25T17:51:11.116Z,1.90
2023-02-25T17:53:44.296Z,2.30
2023-02-25T17:56:13.498Z,2.80
2023-02-25T17:58:40.523Z,1.95
2023-02-25T18:01:09.393Z,2.28
2023-02-25T18:03:45.598Z,2.92
2023-02-25T18:06:32.575Z,2.03
2023-02-25T18:09:02.776Z,1.85
2023-02-25T18:11:38.379Z,2.30
2023-02-25T18:14:24.664Z,1.92
2023-02-25T18:16:53.663Z,2.75
2023-02-25T18:19:39.697Z,2.75
2023-02-25T18:22:21.354Z,2.60
2023-02-25T18:24:54.678Z,1.95
2023-02-25T18:27:41.845Z,2.67
2023-02-25T18:30:21.082Z,1.90
2023-02-25T18:32:48.440Z,1.88
2023-02-25T18:35:22.871Z,1.75
2023-02-25T18:37:53.902Z,1.75
2023-02-25T18:40:30.989Z,1.80
2023-02-25T18:42:59.469Z,2.03
2023-02-25T18:45:28.717Z,1.60
2023-02-25T18:48:01.210Z,1.98
2023-02-25T18:50:32.869Z,2.92
2023-02-25T18:53:03.645Z,2.35
2023-02-25T18:55:32.906Z,2.63
2023-02-25T18:58:01.249Z,3.13
2023-02-25T19:00:28.605Z,2.20
2023-02-25T19:02:58.620Z,2.95
2023-02-25T19:05:26.413Z,3.22
2023-02-25T19:07:54.070Z,3.28
2023-02-25T19:10:26.346Z,2.85
2023-02-25T19:13:03.916Z,2.58
2023-02-25T19:15:31.072Z,2.28
2023-02-25T19:17:58.138Z,2.25
2023-02-25T19:20:25.315Z,1.80
2023-02-25T19:22:53.616Z,1.80
2023-02-25T19:25:26.126Z,2.03
2023-02-25T19:33:13.343Z,2.08
2023-02-25T19:35:42.665Z,1.80
2023-02-25T19:38:17.811Z,1.58
2023-02-25T19:40:46.492Z,2.22
2023-02-25T19:43:15.534Z,1.60
2023-02-25T19:45:43.450Z,2.95
2023-02-25T19:48:10.927Z,3.88
2023-02-25T19:50:40.983Z,3.20
2023-02-25T19:53:08.056Z,2.95
2023-02-25T19:55:35.405Z,2.92
2023-02-25T19:58:02.456Z,2.17
2023-02-25T20:00:29.587Z,2.72
2023-02-25T20:02:56.653Z,3.00
2023-02-25T20:05:24.958Z,2.67
2023-02-25T20:07:54.862Z,2.40
2023-02-25T20:10:22.506Z,3.38
2023-02-25T20:12:49.637Z,2.63
2023-02-25T20:15:17.353Z,3.08
2023-02-25T20:17:45.599Z,4.95
2023-02-25T20:20:16.188Z,5.43
2023-02-25T20:22:43.647Z,5.65
2023-02-25T20:25:13.409Z,4.65
2023-02-25T20:27:43.415Z,4.55
2023-02-25T20:30:14.508Z,3.33
2023-02-25T20:32:43.408Z,3.50
2023-02-25T20:35:16.107Z,2.97
2023-02-25T20:37:54.225Z,4.13
2023-02-25T20:40:21.323Z,2.95
2023-02-25T20:42:48.401Z,2.80
2023-02-25T20:45:16.247Z,4.25
2023-02-25T20:47:44.475Z,3.55
2023-02-25T20:50:15.705Z,3.15
2023-02-25T20:52:43.114Z,3.50
2023-02-25T20:55:10.733Z,2.95
2023-02-25T20:57:37.644Z,3.20
2023-02-25T21:00:09.012Z,3.17
2023-02-25T21:02:36.363Z,2.03
2023-02-25T21:05:03.578Z,2.95
2023-02-25T21:07:30.600Z,3.42
2023-02-25T21:09:57.589Z,3.33
2023-02-25T21:12:24.936Z,3.03
2023-02-25T21:14:52.486Z,3.20
2023-02-25T21:17:19.473Z,3.05
2023-02-25T21:19:46.480Z,3.58
2023-02-25T21:22:13.508Z,3.97
2023-02-25T21:24:40.504Z,3.95
2023-02-25T21:27:07.402Z,3.92
2023-02-25T21:29:35.185Z,3.30
2023-02-25T21:32:02.258Z,2.92
2023-02-25T21:34:29.425Z,2.88
2023-02-25T21:37:00.669Z,3.28
2023-02-25T21:39:27.805Z,1.73
2023-02-25T21:41:54.684Z,2.45
2023-02-25T21:44:22.244Z,2.78
2023-02-25T21:46:49.763Z,2.83
2023-02-25T21:49:16.718Z,2.97
2023-02-25T21:51:44.210Z,2.95
2023-02-25T21:54:11.235Z,2.95
2023-02-25T21:56:38.340Z,3.35
2023-02-25T21:59:06.080Z,3.42
2023-02-25T22:01:41.233Z,2.58
2023-02-25T22:04:10.170Z,3.35
2023-02-25T22:06:37.515Z,2.78
2023-02-25T22:09:06.413Z,3.50
2023-02-25T22:11:35.857Z,3.42
2023-02-25T22:14:05.672Z,2.88
2023-02-25T22:16:33.554Z,3.55
2023-02-25T22:19:00.619Z,2.85
2023-02-25T22:21:29.571Z,2.53
2023-02-25T22:23:59.018Z,2.72
2023-02-25T22:26:31.770Z,2.70
2023-02-25T22:29:02.482Z,2.92
2023-02-25T22:31:30.324Z,2.72
2023-02-25T22:33:58.583Z,2.40
2023-02-25T22:36:26.079Z,3.53
2023-02-25T22:38:53.672Z,2.83
2023-02-25T22:41:23.277Z,2.72
2023-02-25T22:43:51.276Z,2.40
2023-02-25T22:46:20.910Z,2.47
2023-02-25T22:48:49.905Z,2.65
2023-02-25T22:51:26.284Z,2.70
2023-02-25T22:53:54.449Z,2.70
2023-02-25T22:56:22.225Z,3.33
2023-02-25T22:58:49.621Z,2.63
2023-02-25T23:01:19.564Z,3.03
2023-02-25T23:03:47.353Z,3.03
2023-02-25T23:06:16.860Z,3.88
2023-02-25T23:08:44.979Z,4.88
2023-02-25T23:11:16.469Z,4.13
2023-02-25T23:13:46.818Z,4.30
2023-02-25T23:16:22.047Z,5.03
2023-02-25T23:18:50.265Z,4.25
2023-02-25T23:21:19.786Z,3.88
2023-02-25T23:23:51.895Z,4.15
2023-02-25T23:28:54.578Z,4.57
2023-02-25T23:31:24.331Z,3.80
2023-02-25T23:33:55.920Z,3.55
2023-02-25T23:36:23.759Z,3.30
2023-02-25T23:38:56.022Z,3.95
2023-02-25T23:41:26.516Z,4.45
2023-02-25T23:43:55.300Z,3.65
2023-02-25T23:46:24.900Z,2.90
2023-02-25T23:49:00.258Z,3.92
2023-02-25T23:51:28.559Z,3.72
2023-02-25T23:53:57.552Z,3.45
2023-02-25T23:56:27.242Z,2.97
2023-02-25T23:58:55.598Z,3.42
